sensor_id;sensor_type;location;lat;lon;timestamp;P1;durP1;ratioP1;P2;durP2;ratioP2
14874;SDS011;7529;48.170;17.138;2023-01-06T00:03:09;2.50;;;2.15;;
14874;SDS011;7529;48.170;17.138;2023-01-06T00:07:20;2.85;;;2.40;;
14874;SDS011;7529;48.170;17.138;2023-01-06T00:11:32;2.50;;;2.30;;
14874;SDS011;7529;48.170;17.138;2023-01-06T00:15:43;2.40;;;2.20;;
14874;SDS011;7529;48.170;17.138;2023-01-06T00:19:54;2.20;;;2.00;;
14874;SDS011;7529;48.170;17.138;2023-01-06T00:24:06;2.75;;;1.90;;
14874;SDS011;7529;48.170;17.138;2023-01-06T00:28:18;2.25;;;2.05;;
14874;SDS011;7529;48.170;17.138;2023-01-06T00:32:29;3.85;;;3.55;;
14874;SDS011;7529;48.170;17.138;2023-01-06T00:36:42;3.72;;;2.72;;
14874;SDS011;7529;48.170;17.138;2023-01-06T00:40:53;2.85;;;1.80;;
14874;SDS011;7529;48.170;17.138;2023-01-06T00:45:05;8.18;;;2.67;;
14874;SDS011;7529;48.170;17.138;2023-01-06T00:49:17;2.30;;;2.10;;
14874;SDS011;7529;48.170;17.138;2023-01-06T00:53:28;2.72;;;2.05;;
14874;SDS011;7529;48.170;17.138;2023-01-06T00:57:39;8.18;;;2.38;;
14874;SDS011;7529;48.170;17.138;2023-01-06T01:01:52;2.80;;;2.40;;
14874;SDS011;7529;48.170;17.138;2023-01-06T01:06:06;3.10;;;2.35;;
14874;SDS011;7529;48.170;17.138;2023-01-06T01:10:19;3.28;;;2.33;;
14874;SDS011;7529;48.170;17.138;2023-01-06T01:14:30;3.15;;;2.45;;
14874;SDS011;7529;48.170;17.138;2023-01-06T01:18:41;2.40;;;2.00;;
14874;SDS011;7529;48.170;17.138;2023-01-06T01:22:53;3.47;;;2.53;;
14874;SDS011;7529;48.170;17.138;2023-01-06T01:27:07;2.75;;;2.50;;
14874;SDS011;7529;48.170;17.138;2023-01-06T01:31:19;2.30;;;2.10;;
14874;SDS011;7529;48.170;17.138;2023-01-06T01:35:30;2.67;;;2.28;;
14874;SDS011;7529;48.170;17.138;2023-01-06T01:39:41;3.63;;;2.50;;
14874;SDS011;7529;48.170;17.138;2023-01-06T01:44:00;2.50;;;2.30;;
14874;SDS011;7529;48.170;17.138;2023-01-06T01:48:33;2.08;;;1.98;;
14874;SDS011;7529;48.170;17.138;2023-01-06T01:52:46;2.60;;;2.20;;
14874;SDS011;7529;48.170;17.138;2023-01-06T01:57:08;4.68;;;2.55;;
14874;SDS011;7529;48.170;17.138;2023-01-06T02:01:25;4.75;;;2.50;;
14874;SDS011;7529;48.170;17.138;2023-01-06T02:05:38;2.72;;;2.42;;
14874;SDS011;7529;48.170;17.138;2023-01-06T02:10:07;3.63;;;2.58;;
14874;SDS011;7529;48.170;17.138;2023-01-06T02:14:25;3.10;;;2.20;;
14874;SDS011;7529;48.170;17.138;2023-01-06T02:33:30;3.03;;;2.63;;
14874;SDS011;7529;48.170;17.138;2023-01-06T02:43:01;4.55;;;2.65;;
14874;SDS011;7529;48.170;17.138;2023-01-06T02:47:42;4.53;;;2.92;;
14874;SDS011;7529;48.170;17.138;2023-01-06T02:52:41;3.00;;;2.70;;
14874;SDS011;7529;48.170;17.138;2023-01-06T03:02:08;3.03;;;2.72;;
14874;SDS011;7529;48.170;17.138;2023-01-06T03:06:21;3.03;;;2.58;;
14874;SDS011;7529;48.170;17.138;2023-01-06T03:10:37;4.13;;;2.88;;
14874;SDS011;7529;48.170;17.138;2023-01-06T03:14:53;5.28;;;2.92;;
14874;SDS011;7529;48.170;17.138;2023-01-06T03:19:07;3.53;;;2.72;;
14874;SDS011;7529;48.170;17.138;2023-01-06T03:23:20;2.85;;;2.60;;
14874;SDS011;7529;48.170;17.138;2023-01-06T03:27:33;5.20;;;3.40;;
14874;SDS011;7529;48.170;17.138;2023-01-06T03:36:46;2.45;;;2.25;;
14874;SDS011;7529;48.170;17.138;2023-01-06T03:45:58;2.85;;;2.65;;
14874;SDS011;7529;48.170;17.138;2023-01-06T03:50:34;3.22;;;2.90;;
14874;SDS011;7529;48.170;17.138;2023-01-06T03:54:56;2.78;;;2.58;;
14874;SDS011;7529;48.170;17.138;2023-01-06T03:59:23;3.00;;;2.70;;
14874;SDS011;7529;48.170;17.138;2023-01-06T04:03:41;4.97;;;2.50;;
14874;SDS011;7529;48.170;17.138;2023-01-06T04:07:57;3.05;;;2.70;;
14874;SDS011;7529;48.170;17.138;2023-01-06T04:12:08;6.18;;;3.40;;
14874;SDS011;7529;48.170;17.138;2023-01-06T04:16:38;3.83;;;3.20;;
14874;SDS011;7529;48.170;17.138;2023-01-06T04:20:52;3.53;;;2.45;;
14874;SDS011;7529;48.170;17.138;2023-01-06T04:25:09;3.67;;;2.97;;
14874;SDS011;7529;48.170;17.138;2023-01-06T04:29:23;3.42;;;2.90;;
14874;SDS011;7529;48.170;17.138;2023-01-06T04:33:38;3.53;;;2.97;;
14874;SDS011;7529;48.170;17.138;2023-01-06T04:37:52;5.32;;;2.90;;
14874;SDS011;7529;48.170;17.138;2023-01-06T04:42:05;3.28;;;2.80;;
14874;SDS011;7529;48.170;17.138;2023-01-06T04:46:16;2.63;;;2.42;;
14874;SDS011;7529;48.170;17.138;2023-01-06T04:50:27;3.53;;;2.72;;
14874;SDS011;7529;48.170;17.138;2023-01-06T04:54:39;5.35;;;3.13;;
14874;SDS011;7529;48.170;17.138;2023-01-06T04:58:54;3.10;;;2.80;;
14874;SDS011;7529;48.170;17.138;2023-01-06T05:03:07;6.45;;;2.78;;
14874;SDS011;7529;48.170;17.138;2023-01-06T05:07:19;5.78;;;3.55;;
14874;SDS011;7529;48.170;17.138;2023-01-06T05:11:30;5.13;;;3.40;;
14874;SDS011;7529;48.170;17.138;2023-01-06T05:15:41;5.10;;;2.78;;
14874;SDS011;7529;48.170;17.138;2023-01-06T05:19:53;5.80;;;3.50;;
14874;SDS011;7529;48.170;17.138;2023-01-06T05:24:04;3.38;;;3.08;;
14874;SDS011;7529;48.170;17.138;2023-01-06T05:28:15;3.00;;;2.70;;
14874;SDS011;7529;48.170;17.138;2023-01-06T05:32:27;5.18;;;3.22;;
14874;SDS011;7529;48.170;17.138;2023-01-06T05:36:38;6.70;;;3.45;;
14874;SDS011;7529;48.170;17.138;2023-01-06T05:40:50;9.73;;;3.28;;
14874;SDS011;7529;48.170;17.138;2023-01-06T05:45:02;7.25;;;4.18;;
14874;SDS011;7529;48.170;17.138;2023-01-06T05:49:14;8.15;;;4.00;;
14874;SDS011;7529;48.170;17.138;2023-01-06T05:53:25;5.30;;;3.78;;
14874;SDS011;7529;48.170;17.138;2023-01-06T05:57:40;6.32;;;3.58;;
14874;SDS011;7529;48.170;17.138;2023-01-06T06:01:51;57.35;;;54.42;;
14874;SDS011;7529;48.170;17.138;2023-01-06T06:06:03;4.13;;;3.72;;
14874;SDS011;7529;48.170;17.138;2023-01-06T06:10:16;34.75;;;32.78;;
14874;SDS011;7529;48.170;17.138;2023-01-06T06:14:27;26.98;;;24.90;;
14874;SDS011;7529;48.170;17.138;2023-01-06T06:18:39;11.73;;;10.57;;
14874;SDS011;7529;48.170;17.138;2023-01-06T06:22:55;23.98;;;22.13;;
14874;SDS011;7529;48.170;17.138;2023-01-06T06:27:06;23.48;;;22.13;;
14874;SDS011;7529;48.170;17.138;2023-01-06T06:31:19;23.10;;;21.10;;
14874;SDS011;7529;48.170;17.138;2023-01-06T06:35:35;19.85;;;18.58;;
14874;SDS011;7529;48.170;17.138;2023-01-06T06:39:46;20.30;;;18.90;;
14874;SDS011;7529;48.170;17.138;2023-01-06T06:43:58;20.00;;;18.40;;
14874;SDS011;7529;48.170;17.138;2023-01-06T06:48:09;19.52;;;17.80;;
14874;SDS011;7529;48.170;17.138;2023-01-06T06:52:20;18.27;;;16.75;;
14874;SDS011;7529;48.170;17.138;2023-01-06T06:56:32;22.83;;;20.55;;
14874;SDS011;7529;48.170;17.138;2023-01-06T07:00:43;18.05;;;15.80;;
14874;SDS011;7529;48.170;17.138;2023-01-06T07:04:54;13.15;;;10.70;;
14874;SDS011;7529;48.170;17.138;2023-01-06T07:09:05;4.38;;;3.88;;
14874;SDS011;7529;48.170;17.138;2023-01-06T07:13:17;9.98;;;3.35;;
14874;SDS011;7529;48.170;17.138;2023-01-06T07:17:28;4.05;;;3.65;;
14874;SDS011;7529;48.170;17.138;2023-01-06T07:21:39;3.55;;;3.25;;
14874;SDS011;7529;48.170;17.138;2023-01-06T07:25:54;7.82;;;3.47;;
14874;SDS011;7529;48.170;17.138;2023-01-06T07:30:08;4.53;;;3.40;;
14874;SDS011;7529;48.170;17.138;2023-01-06T07:34:21;2.92;;;2.72;;
14874;SDS011;7529;48.170;17.138;2023-01-06T07:38:33;3.95;;;3.03;;
14874;SDS011;7529;48.170;17.138;2023-01-06T07:42:44;6.38;;;3.75;;
14874;SDS011;7529;48.170;17.138;2023-01-06T07:46:56;3.50;;;3.20;;
14874;SDS011;7529;48.170;17.138;2023-01-06T07:51:07;3.22;;;2.75;;
14874;SDS011;7529;48.170;17.138;2023-01-06T07:55:20;4.78;;;4.07;;
14874;SDS011;7529;48.170;17.138;2023-01-06T07:59:32;7.93;;;4.45;;
14874;SDS011;7529;48.170;17.138;2023-01-06T08:03:43;13.45;;;4.05;;
14874;SDS011;7529;48.170;17.138;2023-01-06T08:07:54;5.43;;;4.85;;
14874;SDS011;7529;48.170;17.138;2023-01-06T08:12:06;4.82;;;4.15;;
14874;SDS011;7529;48.170;17.138;2023-01-06T08:16:18;5.75;;;3.85;;
14874;SDS011;7529;48.170;17.138;2023-01-06T08:20:29;3.88;;;3.45;;
14874;SDS011;7529;48.170;17.138;2023-01-06T08:24:40;3.00;;;2.80;;
14874;SDS011;7529;48.170;17.138;2023-01-06T08:28:51;6.63;;;3.70;;
14874;SDS011;7529;48.170;17.138;2023-01-06T08:33:04;3.72;;;3.35;;
14874;SDS011;7529;48.170;17.138;2023-01-06T08:37:16;8.02;;;4.20;;
14874;SDS011;7529;48.170;17.138;2023-01-06T08:41:27;3.53;;;3.05;;
14874;SDS011;7529;48.170;17.138;2023-01-06T08:45:40;4.93;;;3.63;;
14874;SDS011;7529;48.170;17.138;2023-01-06T08:49:51;7.88;;;5.60;;
14874;SDS011;7529;48.170;17.138;2023-01-06T08:54:02;8.98;;;5.70;;
14874;SDS011;7529;48.170;17.138;2023-01-06T08:58:14;10.38;;;4.80;;
14874;SDS011;7529;48.170;17.138;2023-01-06T09:02:25;9.80;;;5.00;;
14874;SDS011;7529;48.170;17.138;2023-01-06T09:06:43;10.63;;;6.05;;
14874;SDS011;7529;48.170;17.138;2023-01-06T09:10:56;9.57;;;5.63;;
14874;SDS011;7529;48.170;17.138;2023-01-06T09:15:08;6.82;;;4.57;;
14874;SDS011;7529;48.170;17.138;2023-01-06T09:19:19;9.88;;;5.45;;
14874;SDS011;7529;48.170;17.138;2023-01-06T09:23:31;10.48;;;4.90;;
14874;SDS011;7529;48.170;17.138;2023-01-06T09:27:42;8.50;;;4.32;;
14874;SDS011;7529;48.170;17.138;2023-01-06T09:31:54;8.57;;;4.00;;
14874;SDS011;7529;48.170;17.138;2023-01-06T09:36:05;8.43;;;4.10;;
14874;SDS011;7529;48.170;17.138;2023-01-06T09:40:18;6.57;;;3.40;;
14874;SDS011;7529;48.170;17.138;2023-01-06T09:44:53;7.85;;;3.53;;
14874;SDS011;7529;48.170;17.138;2023-01-06T09:53:51;5.78;;;3.38;;
14874;SDS011;7529;48.170;17.138;2023-01-06T09:58:13;6.07;;;2.85;;
14874;SDS011;7529;48.170;17.138;2023-01-06T10:02:29;4.38;;;2.38;;
14874;SDS011;7529;48.170;17.138;2023-01-06T10:06:59;7.32;;;2.97;;
14874;SDS011;7529;48.170;17.138;2023-01-06T10:15:51;7.03;;;3.72;;
14874;SDS011;7529;48.170;17.138;2023-01-06T10:29:43;10.15;;;3.45;;
14874;SDS011;7529;48.170;17.138;2023-01-06T10:33:55;4.95;;;3.15;;
14874;SDS011;7529;48.170;17.138;2023-01-06T10:38:08;6.15;;;3.90;;
14874;SDS011;7529;48.170;17.138;2023-01-06T10:42:39;7.93;;;3.80;;
14874;SDS011;7529;48.170;17.138;2023-01-06T10:47:05;6.93;;;3.63;;
14874;SDS011;7529;48.170;17.138;2023-01-06T10:55:50;5.22;;;3.42;;
14874;SDS011;7529;48.170;17.138;2023-01-06T11:04:28;5.82;;;3.67;;
14874;SDS011;7529;48.170;17.138;2023-01-06T11:08:39;6.15;;;3.70;;
14874;SDS011;7529;48.170;17.138;2023-01-06T11:12:51;6.22;;;3.25;;
14874;SDS011;7529;48.170;17.138;2023-01-06T11:17:05;8.27;;;3.47;;
14874;SDS011;7529;48.170;17.138;2023-01-06T11:21:39;2.70;;;2.28;;
14874;SDS011;7529;48.170;17.138;2023-01-06T11:26:06;2.67;;;2.38;;
14874;SDS011;7529;48.170;17.138;2023-01-06T11:35:25;5.20;;;2.83;;
14874;SDS011;7529;48.170;17.138;2023-01-06T11:39:41;2.78;;;2.50;;
14874;SDS011;7529;48.170;17.138;2023-01-06T11:43:53;4.40;;;2.80;;
14874;SDS011;7529;48.170;17.138;2023-01-06T11:48:23;5.07;;;2.40;;
14874;SDS011;7529;48.170;17.138;2023-01-06T11:52:56;2.90;;;2.60;;
14874;SDS011;7529;48.170;17.138;2023-01-06T11:57:15;3.53;;;2.80;;
14874;SDS011;7529;48.170;17.138;2023-01-06T12:01:56;6.03;;;2.58;;
14874;SDS011;7529;48.170;17.138;2023-01-06T12:10:26;4.07;;;2.90;;
14874;SDS011;7529;48.170;17.138;2023-01-06T12:14:43;3.67;;;2.97;;
14874;SDS011;7529;48.170;17.138;2023-01-06T12:18:56;3.90;;;2.80;;
14874;SDS011;7529;48.170;17.138;2023-01-06T12:23:42;3.20;;;2.65;;
14874;SDS011;7529;48.170;17.138;2023-01-06T12:27:50;6.25;;;2.75;;
14874;SDS011;7529;48.170;17.138;2023-01-06T12:32:19;2.78;;;2.33;;
14874;SDS011;7529;48.170;17.138;2023-01-06T12:40:54;4.53;;;2.58;;
14874;SDS011;7529;48.170;17.138;2023-01-06T13:21:27;3.53;;;3.17;;
14874;SDS011;7529;48.170;17.138;2023-01-06T13:26:03;7.30;;;3.05;;
14874;SDS011;7529;48.170;17.138;2023-01-06T13:30:41;5.10;;;2.83;;
14874;SDS011;7529;48.170;17.138;2023-01-06T13:40:20;4.82;;;2.72;;
14874;SDS011;7529;48.170;17.138;2023-01-06T13:44:39;7.45;;;2.90;;
14874;SDS011;7529;48.170;17.138;2023-01-06T13:48:53;3.08;;;2.58;;
14874;SDS011;7529;48.170;17.138;2023-01-06T13:53:14;2.78;;;2.53;;
14874;SDS011;7529;48.170;17.138;2023-01-06T13:57:32;3.53;;;2.47;;
14874;SDS011;7529;48.170;17.138;2023-01-06T14:01:48;4.00;;;2.90;;
14874;SDS011;7529;48.170;17.138;2023-01-06T14:06:01;11.35;;;2.75;;
14874;SDS011;7529;48.170;17.138;2023-01-06T14:14:56;3.92;;;2.60;;
14874;SDS011;7529;48.170;17.138;2023-01-06T14:19:16;5.88;;;3.05;;
14874;SDS011;7529;48.170;17.138;2023-01-06T14:37:01;7.85;;;3.70;;
14874;SDS011;7529;48.170;17.138;2023-01-06T14:41:19;6.30;;;3.25;;
14874;SDS011;7529;48.170;17.138;2023-01-06T14:45:37;4.18;;;3.63;;
14874;SDS011;7529;48.170;17.138;2023-01-06T14:50:13;18.27;;;3.78;;
14874;SDS011;7529;48.170;17.138;2023-01-06T14:54:36;5.30;;;3.30;;
14874;SDS011;7529;48.170;17.138;2023-01-06T14:59:01;4.30;;;3.67;;
14874;SDS011;7529;48.170;17.138;2023-01-06T15:03:24;5.53;;;3.63;;
14874;SDS011;7529;48.170;17.138;2023-01-06T15:07:53;5.47;;;4.22;;
14874;SDS011;7529;48.170;17.138;2023-01-06T15:16:41;9.25;;;5.85;;
14874;SDS011;7529;48.170;17.138;2023-01-06T15:20:54;4.35;;;3.92;;
14874;SDS011;7529;48.170;17.138;2023-01-06T15:25:15;5.13;;;4.18;;
14874;SDS011;7529;48.170;17.138;2023-01-06T15:29:38;6.07;;;4.70;;
14874;SDS011;7529;48.170;17.138;2023-01-06T15:38:33;5.78;;;4.60;;
14874;SDS011;7529;48.170;17.138;2023-01-06T15:42:49;6.03;;;4.75;;
14874;SDS011;7529;48.170;17.138;2023-01-06T15:47:14;7.32;;;4.80;;
14874;SDS011;7529;48.170;17.138;2023-01-06T15:51:53;6.22;;;4.35;;
14874;SDS011;7529;48.170;17.138;2023-01-06T15:56:14;6.07;;;5.28;;
14874;SDS011;7529;48.170;17.138;2023-01-06T16:00:41;6.10;;;4.82;;
14874;SDS011;7529;48.170;17.138;2023-01-06T16:04:58;6.43;;;5.47;;
14874;SDS011;7529;48.170;17.138;2023-01-06T16:13:58;8.85;;;7.25;;
14874;SDS011;7529;48.170;17.138;2023-01-06T16:18:09;10.88;;;8.05;;
14874;SDS011;7529;48.170;17.138;2023-01-06T16:26:55;8.65;;;7.30;;
14874;SDS011;7529;48.170;17.138;2023-01-06T16:31:13;9.07;;;8.18;;
14874;SDS011;7529;48.170;17.138;2023-01-06T16:35:54;13.20;;;9.57;;
14874;SDS011;7529;48.170;17.138;2023-01-06T16:40:07;18.50;;;11.68;;
14874;SDS011;7529;48.170;17.138;2023-01-06T16:44:28;14.85;;;10.48;;
14874;SDS011;7529;48.170;17.138;2023-01-06T16:48:40;16.02;;;11.13;;
14874;SDS011;7529;48.170;17.138;2023-01-06T16:53:09;20.67;;;15.13;;
14874;SDS011;7529;48.170;17.138;2023-01-06T16:57:23;15.70;;;14.13;;
14874;SDS011;7529;48.170;17.138;2023-01-06T17:01:35;13.73;;;10.27;;
14874;SDS011;7529;48.170;17.138;2023-01-06T17:05:46;11.73;;;10.40;;
14874;SDS011;7529;48.170;17.138;2023-01-06T17:09:58;13.13;;;9.00;;
14874;SDS011;7529;48.170;17.138;2023-01-06T17:14:16;11.30;;;8.45;;
14874;SDS011;7529;48.170;17.138;2023-01-06T17:18:32;12.68;;;8.30;;
14874;SDS011;7529;48.170;17.138;2023-01-06T17:22:43;19.77;;;8.07;;
14874;SDS011;7529;48.170;17.138;2023-01-06T17:27:15;8.90;;;7.25;;
14874;SDS011;7529;48.170;17.138;2023-01-06T17:31:34;12.10;;;8.30;;
14874;SDS011;7529;48.170;17.138;2023-01-06T17:35:51;12.05;;;10.90;;
14874;SDS011;7529;48.170;17.138;2023-01-06T17:40:10;13.00;;;10.70;;
14874;SDS011;7529;48.170;17.138;2023-01-06T17:44:30;13.82;;;10.02;;
14874;SDS011;7529;48.170;17.138;2023-01-06T17:48:50;11.70;;;10.32;;
14874;SDS011;7529;48.170;17.138;2023-01-06T17:53:18;11.77;;;9.95;;
14874;SDS011;7529;48.170;17.138;2023-01-06T17:58:04;17.17;;;10.93;;
14874;SDS011;7529;48.170;17.138;2023-01-06T18:02:37;17.27;;;10.68;;
14874;SDS011;7529;48.170;17.138;2023-01-06T18:06:52;22.38;;;15.73;;
14874;SDS011;7529;48.170;17.138;2023-01-06T18:15:29;18.00;;;14.90;;
14874;SDS011;7529;48.170;17.138;2023-01-06T18:19:44;16.75;;;14.80;;
14874;SDS011;7529;48.170;17.138;2023-01-06T18:23:55;18.80;;;15.68;;
14874;SDS011;7529;48.170;17.138;2023-01-06T18:28:17;20.95;;;17.73;;
14874;SDS011;7529;48.170;17.138;2023-01-06T18:32:31;13.60;;;12.20;;
14874;SDS011;7529;48.170;17.138;2023-01-06T18:36:45;15.27;;;9.13;;
14874;SDS011;7529;48.170;17.138;2023-01-06T18:40:58;16.45;;;11.20;;
14874;SDS011;7529;48.170;17.138;2023-01-06T18:49:24;13.40;;;8.75;;
14874;SDS011;7529;48.170;17.138;2023-01-06T18:53:43;11.60;;;9.43;;
14874;SDS011;7529;48.170;17.138;2023-01-06T18:57:59;13.25;;;10.63;;
14874;SDS011;7529;48.170;17.138;2023-01-06T19:02:32;12.23;;;10.07;;
14874;SDS011;7529;48.170;17.138;2023-01-06T19:06:49;10.38;;;9.30;;
14874;SDS011;7529;48.170;17.138;2023-01-06T19:11:10;9.65;;;8.70;;
14874;SDS011;7529;48.170;17.138;2023-01-06T19:15:28;14.45;;;9.30;;
14874;SDS011;7529;48.170;17.138;2023-01-06T19:19:42;16.25;;;14.55;;
14874;SDS011;7529;48.170;17.138;2023-01-06T19:23:53;16.08;;;13.98;;
14874;SDS011;7529;48.170;17.138;2023-01-06T19:28:17;17.50;;;15.80;;
14874;SDS011;7529;48.170;17.138;2023-01-06T19:32:35;15.85;;;14.27;;
14874;SDS011;7529;48.170;17.138;2023-01-06T19:36:47;17.58;;;13.77;;
14874;SDS011;7529;48.170;17.138;2023-01-06T19:41:05;17.63;;;13.82;;
14874;SDS011;7529;48.170;17.138;2023-01-06T19:45:29;18.58;;;16.58;;
14874;SDS011;7529;48.170;17.138;2023-01-06T19:49:44;20.33;;;18.23;;
14874;SDS011;7529;48.170;17.138;2023-01-06T19:54:03;20.08;;;18.05;;
14874;SDS011;7529;48.170;17.138;2023-01-06T19:58:30;24.55;;;16.42;;
14874;SDS011;7529;48.170;17.138;2023-01-06T20:02:44;15.70;;;13.52;;
14874;SDS011;7529;48.170;17.138;2023-01-06T20:06:59;15.00;;;13.38;;
14874;SDS011;7529;48.170;17.138;2023-01-06T20:11:14;9.30;;;7.20;;
14874;SDS011;7529;48.170;17.138;2023-01-06T20:15:25;9.98;;;7.88;;
14874;SDS011;7529;48.170;17.138;2023-01-06T20:19:37;6.32;;;5.72;;
14874;SDS011;7529;48.170;17.138;2023-01-06T20:23:48;3.80;;;3.50;;
14874;SDS011;7529;48.170;17.138;2023-01-06T20:28:00;2.67;;;2.47;;
14874;SDS011;7529;48.170;17.138;2023-01-06T20:32:11;2.67;;;2.47;;
14874;SDS011;7529;48.170;17.138;2023-01-06T20:36:25;2.92;;;2.65;;
14874;SDS011;7529;48.170;17.138;2023-01-06T20:40:38;3.10;;;2.50;;
14874;SDS011;7529;48.170;17.138;2023-01-06T20:44:49;4.10;;;3.50;;
14874;SDS011;7529;48.170;17.138;2023-01-06T20:49:01;2.90;;;2.70;;
14874;SDS011;7529;48.170;17.138;2023-01-06T20:53:13;2.30;;;2.20;;
14874;SDS011;7529;48.170;17.138;2023-01-06T20:57:24;3.35;;;3.05;;
14874;SDS011;7529;48.170;17.138;2023-01-06T21:01:36;2.40;;;2.30;;
14874;SDS011;7529;48.170;17.138;2023-01-06T21:05:48;2.00;;;1.90;;
14874;SDS011;7529;48.170;17.138;2023-01-06T21:09:59;3.45;;;2.95;;
14874;SDS011;7529;48.170;17.138;2023-01-06T21:14:11;10.75;;;4.32;;
14874;SDS011;7529;48.170;17.138;2023-01-06T21:18:22;6.70;;;6.20;;
14874;SDS011;7529;48.170;17.138;2023-01-06T21:22:34;2.70;;;2.58;;
14874;SDS011;7529;48.170;17.138;2023-01-06T21:26:45;2.78;;;2.58;;
14874;SDS011;7529;48.170;17.138;2023-01-06T21:30:56;3.20;;;2.88;;
14874;SDS011;7529;48.170;17.138;2023-01-06T21:35:08;2.40;;;2.30;;
14874;SDS011;7529;48.170;17.138;2023-01-06T21:39:20;3.92;;;3.50;;
14874;SDS011;7529;48.170;17.138;2023-01-06T21:43:32;3.75;;;3.45;;
14874;SDS011;7529;48.170;17.138;2023-01-06T21:47:43;3.40;;;3.20;;
14874;SDS011;7529;48.170;17.138;2023-01-06T21:51:54;2.38;;;2.17;;
14874;SDS011;7529;48.170;17.138;2023-01-06T21:56:07;2.80;;;2.60;;
14874;SDS011;7529;48.170;17.138;2023-01-06T22:00:18;2.50;;;2.40;;
14874;SDS011;7529;48.170;17.138;2023-01-06T22:04:31;3.10;;;2.53;;
14874;SDS011;7529;48.170;17.138;2023-01-06T22:08:43;2.30;;;2.10;;
14874;SDS011;7529;48.170;17.138;2023-01-06T22:12:56;1.98;;;1.90;;
14874;SDS011;7529;48.170;17.138;2023-01-06T22:17:08;5.25;;;2.60;;
14874;SDS011;7529;48.170;17.138;2023-01-06T22:21:20;2.38;;;2.28;;
14874;SDS011;7529;48.170;17.138;2023-01-06T22:25:32;3.50;;;2.53;;
14874;SDS011;7529;48.170;17.138;2023-01-06T22:29:43;2.30;;;2.10;;
14874;SDS011;7529;48.170;17.138;2023-01-06T22:33:54;2.20;;;2.10;;
14874;SDS011;7529;48.170;17.138;2023-01-06T22:38:06;2.17;;;2.08;;
14874;SDS011;7529;48.170;17.138;2023-01-06T22:42:17;2.42;;;2.33;;
14874;SDS011;7529;48.170;17.138;2023-01-06T22:46:29;2.15;;;2.05;;
14874;SDS011;7529;48.170;17.138;2023-01-06T22:50:41;2.65;;;2.45;;
14874;SDS011;7529;48.170;17.138;2023-01-06T22:54:52;2.30;;;2.20;;
14874;SDS011;7529;48.170;17.138;2023-01-06T22:59:03;2.13;;;1.98;;
14874;SDS011;7529;48.170;17.138;2023-01-06T23:03:15;2.88;;;2.67;;
14874;SDS011;7529;48.170;17.138;2023-01-06T23:07:26;3.85;;;2.95;;
14874;SDS011;7529;48.170;17.138;2023-01-06T23:11:38;2.67;;;2.53;;
14874;SDS011;7529;48.170;17.138;2023-01-06T23:16:24;2.42;;;2.22;;
14874;SDS011;7529;48.170;17.138;2023-01-06T23:20:29;3.03;;;2.83;;
14874;SDS011;7529;48.170;17.138;2023-01-06T23:24:40;3.17;;;2.97;;
14874;SDS011;7529;48.170;17.138;2023-01-06T23:28:52;3.67;;;2.63;;
14874;SDS011;7529;48.170;17.138;2023-01-06T23:33:04;3.20;;;3.00;;
14874;SDS011;7529;48.170;17.138;2023-01-06T23:37:15;2.83;;;2.63;;
14874;SDS011;7529;48.170;17.138;2023-01-06T23:41:27;3.40;;;3.10;;
14874;SDS011;7529;48.170;17.138;2023-01-06T23:45:42;3.22;;;3.00;;
14874;SDS011;7529;48.170;17.138;2023-01-06T23:49:53;3.00;;;2.80;;
14874;SDS011;7529;48.170;17.138;2023-01-06T23:54:04;3.33;;;3.03;;
14874;SDS011;7529;48.170;17.138;2023-01-06T23:58:16;3.50;;;3.20;;
